sensor_id;sensor_type;location;lat;lon;timestamp;pressure;altitude;pressure_sealevel;temperature
70533;BMP180;58088;51.186;17.130;2023-04-25T00:01:33;99332.40;;;12.32
70533;BMP180;58088;51.186;17.130;2023-04-25T00:04:02;99330.80;;;12.30
70533;BMP180;58088;51.186;17.130;2023-04-25T00:06:29;99324.00;;;12.30
70533;BMP180;58088;51.186;17.130;2023-04-25T00:08:55;99321.60;;;12.30
70533;BMP180;58088;51.186;17.130;2023-04-25T00:11:23;99318.40;;;12.30
70533;BMP180;58088;51.186;17.130;2023-04-25T00:13:49;99320.40;;;12.30
70533;BMP180;58088;51.186;17.130;2023-04-25T00:16:20;99322.20;;;12.22
70533;BMP180;58088;51.186;17.130;2023-04-25T00:18:46;99314.20;;;12.20
70533;BMP180;58088;51.186;17.130;2023-04-25T00:21:18;99322.60;;;12.20
70533;BMP180;58088;51.186;17.130;2023-04-25T00:23:46;99324.60;;;12.20
70533;BMP180;58088;51.186;17.130;2023-04-25T00:26:13;99320.80;;;12.20
70533;BMP180;58088;51.186;17.130;2023-04-25T00:28:39;99326.20;;;12.20
70533;BMP180;58088;51.186;17.130;2023-04-25T00:31:06;99319.80;;;12.20
70533;BMP180;58088;51.186;17.130;2023-04-25T00:33:32;99323.00;;;12.20
70533;BMP180;58088;51.186;17.130;2023-04-25T00:35:59;99324.20;;;12.20
70533;BMP180;58088;51.186;17.130;2023-04-25T00:38:25;99326.20;;;12.20
70533;BMP180;58088;51.186;17.130;2023-04-25T00:40:51;99333.00;;;12.18
70533;BMP180;58088;51.186;17.130;2023-04-25T00:43:18;99330.20;;;12.20
70533;BMP180;58088;51.186;17.130;2023-04-25T00:45:47;99328.80;;;12.16
70533;BMP180;58088;51.186;17.130;2023-04-25T00:48:17;99334.40;;;12.10
70533;BMP180;58088;51.186;17.130;2023-04-25T00:50:53;99334.80;;;12.14
70533;BMP180;58088;51.186;17.130;2023-04-25T00:53:24;99335.40;;;12.18
70533;BMP180;58088;51.186;17.130;2023-04-25T00:55:52;99335.40;;;12.10
70533;BMP180;58088;51.186;17.130;2023-04-25T00:58:20;99332.00;;;12.10
70533;BMP180;58088;51.186;17.130;2023-04-25T01:00:49;99336.80;;;12.10
70533;BMP180;58088;51.186;17.130;2023-04-25T01:03:17;99339.00;;;12.10
70533;BMP180;58088;51.186;17.130;2023-04-25T01:05:46;99333.00;;;12.10
70533;BMP180;58088;51.186;17.130;2023-04-25T01:08:14;99334.80;;;12.10
70533;BMP180;58088;51.186;17.130;2023-04-25T01:10:40;99324.80;;;12.10
70533;BMP180;58088;51.186;17.130;2023-04-25T01:13:08;99332.20;;;12.10
70533;BMP180;58088;51.186;17.130;2023-04-25T01:15:34;99332.40;;;12.06
70533;BMP180;58088;51.186;17.130;2023-04-25T01:18:04;99331.60;;;12.00
70533;BMP180;58088;51.186;17.130;2023-04-25T01:20:33;99337.60;;;12.00
70533;BMP180;58088;51.186;17.130;2023-04-25T01:23:00;99337.40;;;12.00
70533;BMP180;58088;51.186;17.130;2023-04-25T01:25:30;99334.20;;;12.00
70533;BMP180;58088;51.186;17.130;2023-04-25T01:27:57;99339.80;;;11.96
70533;BMP180;58088;51.186;17.130;2023-04-25T01:30:27;99340.80;;;11.90
70533;BMP180;58088;51.186;17.130;2023-04-25T01:32:56;99342.00;;;11.90
70533;BMP180;58088;51.186;17.130;2023-04-25T01:35:23;99343.20;;;11.88
70533;BMP180;58088;51.186;17.130;2023-04-25T01:37:53;99342.00;;;11.80
70533;BMP180;58088;51.186;17.130;2023-04-25T01:40:21;99338.40;;;11.80
70533;BMP180;58088;51.186;17.130;2023-04-25T01:42:48;99344.40;;;11.80
70533;BMP180;58088;51.186;17.130;2023-04-25T01:45:15;99349.20;;;11.80
70533;BMP180;58088;51.186;17.130;2023-04-25T01:47:42;99351.60;;;11.80
70533;BMP180;58088;51.186;17.130;2023-04-25T01:50:10;99352.80;;;11.80
70533;BMP180;58088;51.186;17.130;2023-04-25T01:52:37;99352.60;;;11.70
70533;BMP180;58088;51.186;17.130;2023-04-25T01:55:05;99354.20;;;11.70
70533;BMP180;58088;51.186;17.130;2023-04-25T01:57:33;99354.40;;;11.70
70533;BMP180;58088;51.186;17.130;2023-04-25T02:00:04;99348.40;;;11.60
70533;BMP180;58088;51.186;17.130;2023-04-25T02:02:40;99347.20;;;11.60
70533;BMP180;58088;51.186;17.130;2023-04-25T02:05:27;99346.80;;;11.60
70533;BMP180;58088;51.186;17.130;2023-04-25T02:07:53;99351.80;;;11.60
70533;BMP180;58088;51.186;17.130;2023-04-25T02:10:19;99353.00;;;11.60
70533;BMP180;58088;51.186;17.130;2023-04-25T02:13:02;99353.40;;;11.50
70533;BMP180;58088;51.186;17.130;2023-04-25T02:15:41;99355.80;;;11.50
70533;BMP180;58088;51.186;17.130;2023-04-25T02:18:24;99358.00;;;11.50
70533;BMP180;58088;51.186;17.130;2023-04-25T02:20:52;99353.80;;;11.40
70533;BMP180;58088;51.186;17.130;2023-04-25T02:23:20;99358.00;;;11.40
70533;BMP180;58088;51.186;17.130;2023-04-25T02:25:46;99359.60;;;11.40
70533;BMP180;58088;51.186;17.130;2023-04-25T02:28:13;99355.40;;;11.30
70533;BMP180;58088;51.186;17.130;2023-04-25T02:30:39;99352.60;;;11.30
70533;BMP180;58088;51.186;17.130;2023-04-25T02:33:05;99353.20;;;11.30
70533;BMP180;58088;51.186;17.130;2023-04-25T02:35:32;99353.00;;;11.20
70533;BMP180;58088;51.186;17.130;2023-04-25T02:37:58;99350.40;;;11.20
70533;BMP180;58088;51.186;17.130;2023-04-25T02:40:24;99347.80;;;11.20
70533;BMP180;58088;51.186;17.130;2023-04-25T02:42:50;99351.80;;;11.20
70533;BMP180;58088;51.186;17.130;2023-04-25T02:45:18;99352.60;;;11.20
70533;BMP180;58088;51.186;17.130;2023-04-25T02:47:44;99345.00;;;11.16
70533;BMP180;58088;51.186;17.130;2023-04-25T02:50:11;99348.40;;;11.18
70533;BMP180;58088;51.186;17.130;2023-04-25T02:52:37;99346.00;;;11.10
70533;BMP180;58088;51.186;17.130;2023-04-25T02:55:15;99351.40;;;11.10
70533;BMP180;58088;51.186;17.130;2023-04-25T02:57:42;99352.20;;;11.00
70533;BMP180;58088;51.186;17.130;2023-04-25T03:00:10;99347.00;;;11.00
70533;BMP180;58088;51.186;17.130;2023-04-25T03:02:37;99350.20;;;11.00
70533;BMP180;58088;51.186;17.130;2023-04-25T03:05:04;99347.80;;;11.00
70533;BMP180;58088;51.186;17.130;2023-04-25T03:07:32;99344.40;;;11.00
70533;BMP180;58088;51.186;17.130;2023-04-25T03:09:58;99349.40;;;11.00
70533;BMP180;58088;51.186;17.130;2023-04-25T03:12:25;99344.00;;;11.00
70533;BMP180;58088;51.186;17.130;2023-04-25T03:14:51;99338.20;;;10.90
70533;BMP180;58088;51.186;17.130;2023-04-25T03:17:18;99344.60;;;10.90
70533;BMP180;58088;51.186;17.130;2023-04-25T03:19:44;99340.60;;;10.90
70533;BMP180;58088;51.186;17.130;2023-04-25T03:22:11;99342.20;;;10.90
70533;BMP180;58088;51.186;17.130;2023-04-25T03:24:37;99343.60;;;10.90
70533;BMP180;58088;51.186;17.130;2023-04-25T03:27:04;99348.80;;;10.90
70533;BMP180;58088;51.186;17.130;2023-04-25T03:29:31;99342.00;;;10.90
70533;BMP180;58088;51.186;17.130;2023-04-25T03:31:58;99337.00;;;10.90
70533;BMP180;58088;51.186;17.130;2023-04-25T03:34:24;99341.20;;;10.90
70533;BMP180;58088;51.186;17.130;2023-04-25T03:36:52;99345.20;;;10.90
70533;BMP180;58088;51.186;17.130;2023-04-25T03:39:18;99347.00;;;10.82
70533;BMP180;58088;51.186;17.130;2023-04-25T03:41:47;99354.60;;;10.80
70533;BMP180;58088;51.186;17.130;2023-04-25T03:44:14;99360.60;;;10.80
70533;BMP180;58088;51.186;17.130;2023-04-25T03:46:41;99362.60;;;10.80
70533;BMP180;58088;51.186;17.130;2023-04-25T03:49:07;99362.20;;;10.78
70533;BMP180;58088;51.186;17.130;2023-04-25T03:51:54;99361.40;;;10.76
70533;BMP180;58088;51.186;17.130;2023-04-25T03:54:20;99362.80;;;10.70
70533;BMP180;58088;51.186;17.130;2023-04-25T03:56:55;99364.60;;;10.70
70533;BMP180;58088;51.186;17.130;2023-04-25T03:59:22;99361.40;;;10.70
70533;BMP180;58088;51.186;17.130;2023-04-25T04:01:48;99361.80;;;10.68
70533;BMP180;58088;51.186;17.130;2023-04-25T04:04:15;99363.40;;;10.70
70533;BMP180;58088;51.186;17.130;2023-04-25T04:06:41;99366.00;;;10.70
70533;BMP180;58088;51.186;17.130;2023-04-25T04:09:13;99370.00;;;10.70
70533;BMP180;58088;51.186;17.130;2023-04-25T04:11:42;99373.00;;;10.74
70533;BMP180;58088;51.186;17.130;2023-04-25T04:14:09;99368.80;;;10.80
70533;BMP180;58088;51.186;17.130;2023-04-25T04:16:38;99374.40;;;10.80
70533;BMP180;58088;51.186;17.130;2023-04-25T04:19:05;99371.00;;;10.80
70533;BMP180;58088;51.186;17.130;2023-04-25T04:21:32;99369.80;;;10.90
70533;BMP180;58088;51.186;17.130;2023-04-25T04:24:00;99373.40;;;11.00
70533;BMP180;58088;51.186;17.130;2023-04-25T04:26:29;99374.60;;;11.00
70533;BMP180;58088;51.186;17.130;2023-04-25T04:29:17;99370.80;;;11.10
70533;BMP180;58088;51.186;17.130;2023-04-25T04:32:07;99377.20;;;11.10
70533;BMP180;58088;51.186;17.130;2023-04-25T04:34:35;99378.60;;;11.10
70533;BMP180;58088;51.186;17.130;2023-04-25T04:37:02;99385.40;;;11.10
70533;BMP180;58088;51.186;17.130;2023-04-25T04:39:28;99378.20;;;11.10
70533;BMP180;58088;51.186;17.130;2023-04-25T04:42:03;99387.20;;;11.10
70533;BMP180;58088;51.186;17.130;2023-04-25T04:44:47;99387.20;;;11.20
70533;BMP180;58088;51.186;17.130;2023-04-25T04:47:25;99391.00;;;11.30
70533;BMP180;58088;51.186;17.130;2023-04-25T04:50:24;99385.80;;;11.46
70533;BMP180;58088;51.186;17.130;2023-04-25T04:53:08;99390.60;;;11.54
70533;BMP180;58088;51.186;17.130;2023-04-25T04:55:45;99389.00;;;11.60
70533;BMP180;58088;51.186;17.130;2023-04-25T04:58:30;99388.40;;;11.60
70533;BMP180;58088;51.186;17.130;2023-04-25T05:01:23;99387.80;;;11.68
70533;BMP180;58088;51.186;17.130;2023-04-25T05:03:59;99384.40;;;11.70
70533;BMP180;58088;51.186;17.130;2023-04-25T05:06:46;99393.40;;;11.80
70533;BMP180;58088;51.186;17.130;2023-04-25T05:09:29;99386.20;;;11.80
70533;BMP180;58088;51.186;17.130;2023-04-25T05:12:10;99391.00;;;11.90
70533;BMP180;58088;51.186;17.130;2023-04-25T05:14:55;99392.00;;;12.10
70533;BMP180;58088;51.186;17.130;2023-04-25T05:17:47;99390.80;;;12.40
70533;BMP180;58088;51.186;17.130;2023-04-25T05:20:32;99388.40;;;12.54
70533;BMP180;58088;51.186;17.130;2023-04-25T05:23:25;99388.60;;;12.70
70533;BMP180;58088;51.186;17.130;2023-04-25T05:26:00;99386.40;;;12.80
70533;BMP180;58088;51.186;17.130;2023-04-25T05:28:52;99387.60;;;12.90
70533;BMP180;58088;51.186;17.130;2023-04-25T05:31:37;99387.40;;;13.06
70533;BMP180;58088;51.186;17.130;2023-04-25T05:34:12;99386.20;;;13.20
70533;BMP180;58088;51.186;17.130;2023-04-25T05:36:44;99382.40;;;13.20
70533;BMP180;58088;51.186;17.130;2023-04-25T05:39:16;99382.20;;;13.20
70533;BMP180;58088;51.186;17.130;2023-04-25T05:42:04;99377.00;;;13.20
70533;BMP180;58088;51.186;17.130;2023-04-25T05:44:49;99375.40;;;13.20
70533;BMP180;58088;51.186;17.130;2023-04-25T05:47:33;99376.80;;;13.20
70533;BMP180;58088;51.186;17.130;2023-04-25T05:50:14;99382.00;;;13.12
70533;BMP180;58088;51.186;17.130;2023-04-25T05:52:56;99375.20;;;13.20
70533;BMP180;58088;51.186;17.130;2023-04-25T05:55:48;99387.00;;;13.20
70533;BMP180;58088;51.186;17.130;2023-04-25T05:58:26;99383.00;;;13.10
70533;BMP180;58088;51.186;17.130;2023-04-25T06:00:53;99386.40;;;13.10
70533;BMP180;58088;51.186;17.130;2023-04-25T06:03:20;99389.40;;;13.10
70533;BMP180;58088;51.186;17.130;2023-04-25T06:05:47;99387.20;;;13.10
70533;BMP180;58088;51.186;17.130;2023-04-25T06:08:13;99387.20;;;13.10
70533;BMP180;58088;51.186;17.130;2023-04-25T06:10:39;99386.20;;;13.14
70533;BMP180;58088;51.186;17.130;2023-04-25T06:13:06;99388.40;;;13.24
70533;BMP180;58088;51.186;17.130;2023-04-25T06:15:33;99390.80;;;13.30
70533;BMP180;58088;51.186;17.130;2023-04-25T06:18:00;99389.40;;;13.40
70533;BMP180;58088;51.186;17.130;2023-04-25T06:20:26;99388.20;;;13.40
70533;BMP180;58088;51.186;17.130;2023-04-25T06:22:54;99384.40;;;13.40
70533;BMP180;58088;51.186;17.130;2023-04-25T06:25:26;99377.00;;;13.40
70533;BMP180;58088;51.186;17.130;2023-04-25T06:27:53;99379.60;;;13.50
70533;BMP180;58088;51.186;17.130;2023-04-25T06:30:19;99383.60;;;13.50
70533;BMP180;58088;51.186;17.130;2023-04-25T06:32:51;99391.00;;;13.60
70533;BMP180;58088;51.186;17.130;2023-04-25T06:35:18;99386.40;;;13.80
70533;BMP180;58088;51.186;17.130;2023-04-25T06:37:44;99392.00;;;13.96
70533;BMP180;58088;51.186;17.130;2023-04-25T06:40:11;99390.80;;;14.10
70533;BMP180;58088;51.186;17.130;2023-04-25T06:42:37;99392.00;;;14.26
70533;BMP180;58088;51.186;17.130;2023-04-25T06:45:23;99388.20;;;14.50
70533;BMP180;58088;51.186;17.130;2023-04-25T06:47:49;99386.00;;;14.70
70533;BMP180;58088;51.186;17.130;2023-04-25T06:50:16;99387.60;;;14.82
70533;BMP180;58088;51.186;17.130;2023-04-25T06:52:42;99389.20;;;15.02
70533;BMP180;58088;51.186;17.130;2023-04-25T06:55:09;99382.40;;;15.20
70533;BMP180;58088;51.186;17.130;2023-04-25T06:57:54;99385.40;;;15.50
70533;BMP180;58088;51.186;17.130;2023-04-25T07:00:40;99384.60;;;15.80
70533;BMP180;58088;51.186;17.130;2023-04-25T07:03:07;99385.60;;;15.96
70533;BMP180;58088;51.186;17.130;2023-04-25T07:05:33;99381.00;;;16.04
70533;BMP180;58088;51.186;17.130;2023-04-25T07:08:00;99377.20;;;16.00
70533;BMP180;58088;51.186;17.130;2023-04-25T07:10:27;99375.20;;;16.10
70533;BMP180;58088;51.186;17.130;2023-04-25T07:12:53;99377.20;;;16.18
70533;BMP180;58088;51.186;17.130;2023-04-25T07:15:19;99379.00;;;16.30
70533;BMP180;58088;51.186;17.130;2023-04-25T07:17:46;99376.60;;;16.40
70533;BMP180;58088;51.186;17.130;2023-04-25T07:20:13;99378.40;;;16.44
70533;BMP180;58088;51.186;17.130;2023-04-25T07:22:39;99375.40;;;16.40
70533;BMP180;58088;51.186;17.130;2023-04-25T07:25:06;99379.80;;;16.38
70533;BMP180;58088;51.186;17.130;2023-04-25T07:27:32;99379.60;;;16.20
70533;BMP180;58088;51.186;17.130;2023-04-25T07:30:08;99375.80;;;16.30
70533;BMP180;58088;51.186;17.130;2023-04-25T07:32:34;99380.20;;;16.46
70533;BMP180;58088;51.186;17.130;2023-04-25T07:35:01;99382.40;;;16.60
70533;BMP180;58088;51.186;17.130;2023-04-25T07:37:27;99373.80;;;16.80
70533;BMP180;58088;51.186;17.130;2023-04-25T07:40:04;99375.60;;;16.80
70533;BMP180;58088;51.186;17.130;2023-04-25T07:42:32;99378.60;;;16.90
70533;BMP180;58088;51.186;17.130;2023-04-25T07:44:58;99379.20;;;17.18
70533;BMP180;58088;51.186;17.130;2023-04-25T07:47:24;99376.40;;;17.24
70533;BMP180;58088;51.186;17.130;2023-04-25T07:49:51;99376.60;;;17.20
70533;BMP180;58088;51.186;17.130;2023-04-25T07:52:18;99373.80;;;17.20
70533;BMP180;58088;51.186;17.130;2023-04-25T07:54:48;99378.40;;;17.32
70533;BMP180;58088;51.186;17.130;2023-04-25T07:57:19;99376.40;;;17.12
70533;BMP180;58088;51.186;17.130;2023-04-25T07:59:46;99375.60;;;16.80
70533;BMP180;58088;51.186;17.130;2023-04-25T08:02:12;99375.60;;;16.56
70533;BMP180;58088;51.186;17.130;2023-04-25T08:04:38;99377.60;;;16.50
70533;BMP180;58088;51.186;17.130;2023-04-25T08:07:08;99377.40;;;16.66
70533;BMP180;58088;51.186;17.130;2023-04-25T08:09:54;99377.80;;;16.82
70533;BMP180;58088;51.186;17.130;2023-04-25T08:12:27;99377.80;;;17.10
70533;BMP180;58088;51.186;17.130;2023-04-25T08:14:53;99377.20;;;17.20
70533;BMP180;58088;51.186;17.130;2023-04-25T08:17:20;99377.40;;;16.90
70533;BMP180;58088;51.186;17.130;2023-04-25T08:19:46;99380.00;;;16.90
70533;BMP180;58088;51.186;17.130;2023-04-25T08:22:22;99378.20;;;17.10
70533;BMP180;58088;51.186;17.130;2023-04-25T08:24:53;99381.60;;;17.30
70533;BMP180;58088;51.186;17.130;2023-04-25T08:27:19;99389.60;;;17.30
70533;BMP180;58088;51.186;17.130;2023-04-25T08:29:46;99386.00;;;17.30
70533;BMP180;58088;51.186;17.130;2023-04-25T08:32:13;99388.00;;;17.38
70533;BMP180;58088;51.186;17.130;2023-04-25T08:34:43;99383.40;;;17.20
70533;BMP180;58088;51.186;17.130;2023-04-25T08:37:10;99396.80;;;17.10
70533;BMP180;58088;51.186;17.130;2023-04-25T08:39:59;99395.20;;;17.00
70533;BMP180;58088;51.186;17.130;2023-04-25T08:42:50;99397.40;;;16.90
70533;BMP180;58088;51.186;17.130;2023-04-25T08:45:18;99402.00;;;16.90
70533;BMP180;58088;51.186;17.130;2023-04-25T08:47:45;99398.80;;;16.80
70533;BMP180;58088;51.186;17.130;2023-04-25T08:50:14;99397.20;;;16.70
70533;BMP180;58088;51.186;17.130;2023-04-25T08:52:44;99402.00;;;16.70
70533;BMP180;58088;51.186;17.130;2023-04-25T08:55:15;99400.00;;;16.60
70533;BMP180;58088;51.186;17.130;2023-04-25T08:57:42;99396.60;;;16.48
70533;BMP180;58088;51.186;17.130;2023-04-25T09:00:12;99397.80;;;16.40
70533;BMP180;58088;51.186;17.130;2023-04-25T09:02:42;99394.80;;;16.30
70533;BMP180;58088;51.186;17.130;2023-04-25T09:05:12;99397.20;;;16.20
70533;BMP180;58088;51.186;17.130;2023-04-25T09:07:39;99400.80;;;16.10
70533;BMP180;58088;51.186;17.130;2023-04-25T09:10:06;99405.00;;;15.90
70533;BMP180;58088;51.186;17.130;2023-04-25T09:12:35;99406.00;;;15.80
70533;BMP180;58088;51.186;17.130;2023-04-25T09:15:12;99409.20;;;15.70
70533;BMP180;58088;51.186;17.130;2023-04-25T09:17:59;99409.60;;;15.70
70533;BMP180;58088;51.186;17.130;2023-04-25T09:20:41;99408.20;;;15.70
70533;BMP180;58088;51.186;17.130;2023-04-25T09:23:08;99412.60;;;15.90
70533;BMP180;58088;51.186;17.130;2023-04-25T09:25:37;99411.80;;;16.04
70533;BMP180;58088;51.186;17.130;2023-04-25T09:28:06;99408.00;;;16.10
70533;BMP180;58088;51.186;17.130;2023-04-25T09:30:35;99410.40;;;16.14
70533;BMP180;58088;51.186;17.130;2023-04-25T09:33:31;99406.80;;;16.08
70533;BMP180;58088;51.186;17.130;2023-04-25T09:36:09;99416.40;;;15.94
70533;BMP180;58088;51.186;17.130;2023-04-25T09:39:00;99414.80;;;15.90
70533;BMP180;58088;51.186;17.130;2023-04-25T09:41:29;99417.80;;;15.80
70533;BMP180;58088;51.186;17.130;2023-04-25T09:43:59;99416.20;;;15.74
70533;BMP180;58088;51.186;17.130;2023-04-25T09:46:35;99418.00;;;15.90
70533;BMP180;58088;51.186;17.130;2023-04-25T09:49:07;99424.40;;;16.00
70533;BMP180;58088;51.186;17.130;2023-04-25T09:51:57;99421.40;;;15.90
70533;BMP180;58088;51.186;17.130;2023-04-25T09:54:26;99414.80;;;15.90
70533;BMP180;58088;51.186;17.130;2023-04-25T09:57:16;99415.60;;;16.00
70533;BMP180;58088;51.186;17.130;2023-04-25T09:59:50;99412.00;;;16.26
70533;BMP180;58088;51.186;17.130;2023-04-25T10:02:23;99416.40;;;16.40
70533;BMP180;58088;51.186;17.130;2023-04-25T10:04:54;99418.80;;;16.30
70533;BMP180;58088;51.186;17.130;2023-04-25T10:07:36;99411.60;;;16.20
70533;BMP180;58088;51.186;17.130;2023-04-25T10:10:07;99421.60;;;16.02
70533;BMP180;58088;51.186;17.130;2023-04-25T10:12:33;99417.80;;;16.10
70533;BMP180;58088;51.186;17.130;2023-04-25T10:15:00;99419.00;;;16.10
70533;BMP180;58088;51.186;17.130;2023-04-25T10:17:28;99417.20;;;16.00
70533;BMP180;58088;51.186;17.130;2023-04-25T10:19:55;99419.40;;;16.14
70533;BMP180;58088;51.186;17.130;2023-04-25T10:22:44;99415.20;;;16.28
70533;BMP180;58088;51.186;17.130;2023-04-25T10:25:14;99417.80;;;16.38
70533;BMP180;58088;51.186;17.130;2023-04-25T10:27:40;99414.60;;;16.50
70533;BMP180;58088;51.186;17.130;2023-04-25T10:30:13;99412.60;;;16.60
70533;BMP180;58088;51.186;17.130;2023-04-25T10:32:45;99406.60;;;16.70
70533;BMP180;58088;51.186;17.130;2023-04-25T10:35:24;99411.20;;;16.80
70533;BMP180;58088;51.186;17.130;2023-04-25T10:38:10;99414.80;;;17.00
70533;BMP180;58088;51.186;17.130;2023-04-25T10:40:38;99411.80;;;17.20
70533;BMP180;58088;51.186;17.130;2023-04-25T10:43:43;99411.80;;;17.30
70533;BMP180;58088;51.186;17.130;2023-04-25T10:46:28;99408.00;;;17.38
70533;BMP180;58088;51.186;17.130;2023-04-25T10:49:01;99407.80;;;17.40
70533;BMP180;58088;51.186;17.130;2023-04-25T10:51:33;99401.80;;;17.64
70533;BMP180;58088;51.186;17.130;2023-04-25T10:54:05;99401.80;;;17.80
70533;BMP180;58088;51.186;17.130;2023-04-25T10:56:37;99407.40;;;17.92
70533;BMP180;58088;51.186;17.130;2023-04-25T10:59:18;99405.20;;;18.00
70533;BMP180;58088;51.186;17.130;2023-04-25T11:01:47;99407.80;;;18.00
70533;BMP180;58088;51.186;17.130;2023-04-25T11:04:24;99403.60;;;17.90
70533;BMP180;58088;51.186;17.130;2023-04-25T11:09:34;99400.00;;;17.50
70533;BMP180;58088;51.186;17.130;2023-04-25T11:12:01;99400.40;;;17.30
70533;BMP180;58088;51.186;17.130;2023-04-25T11:14:27;99395.20;;;17.20
70533;BMP180;58088;51.186;17.130;2023-04-25T11:16:55;99397.80;;;17.20
70533;BMP180;58088;51.186;17.130;2023-04-25T11:19:23;99398.00;;;17.10
70533;BMP180;58088;51.186;17.130;2023-04-25T11:21:50;99395.80;;;17.00
70533;BMP180;58088;51.186;17.130;2023-04-25T11:24:17;99395.40;;;17.10
70533;BMP180;58088;51.186;17.130;2023-04-25T11:26:46;99391.20;;;17.20
70533;BMP180;58088;51.186;17.130;2023-04-25T11:29:14;99397.00;;;17.30
70533;BMP180;58088;51.186;17.130;2023-04-25T11:31:44;99404.40;;;17.30
70533;BMP180;58088;51.186;17.130;2023-04-25T11:34:17;99394.20;;;17.30
70533;BMP180;58088;51.186;17.130;2023-04-25T11:36:45;99396.20;;;17.20
70533;BMP180;58088;51.186;17.130;2023-04-25T11:39:13;99396.40;;;17.26
70533;BMP180;58088;51.186;17.130;2023-04-25T11:41:42;99399.60;;;17.30
70533;BMP180;58088;51.186;17.130;2023-04-25T11:44:10;99401.40;;;17.30
70533;BMP180;58088;51.186;17.130;2023-04-25T11:46:37;99398.00;;;17.20
70533;BMP180;58088;51.186;17.130;2023-04-25T11:49:04;99394.00;;;17.20
70533;BMP180;58088;51.186;17.130;2023-04-25T11:51:39;99400.40;;;17.30
70533;BMP180;58088;51.186;17.130;2023-04-25T11:54:06;99408.20;;;17.30
70533;BMP180;58088;51.186;17.130;2023-04-25T11:56:34;99412.40;;;17.22
70533;BMP180;58088;51.186;17.130;2023-04-25T11:59:05;99411.60;;;17.20
70533;BMP180;58088;51.186;17.130;2023-04-25T12:01:37;99402.60;;;17.18
70533;BMP180;58088;51.186;17.130;2023-04-25T12:04:23;99405.00;;;17.12
70533;BMP180;58088;51.186;17.130;2023-04-25T12:06:53;99407.40;;;17.10
70533;BMP180;58088;51.186;17.130;2023-04-25T12:09:29;99403.40;;;17.20
70533;BMP180;58088;51.186;17.130;2023-04-25T12:11:58;99406.00;;;17.40
70533;BMP180;58088;51.186;17.130;2023-04-25T12:14:27;99403.40;;;17.54
70533;BMP180;58088;51.186;17.130;2023-04-25T12:17:03;99405.80;;;17.50
70533;BMP180;58088;51.186;17.130;2023-04-25T12:19:37;99403.40;;;17.40
70533;BMP180;58088;51.186;17.130;2023-04-25T12:22:22;99405.20;;;17.50
70533;BMP180;58088;51.186;17.130;2023-04-25T12:24:49;99408.40;;;17.60
70533;BMP180;58088;51.186;17.130;2023-04-25T12:27:16;99406.20;;;17.70
70533;BMP180;58088;51.186;17.130;2023-04-25T12:29:55;99407.60;;;17.70
70533;BMP180;58088;51.186;17.130;2023-04-25T12:32:22;99413.60;;;17.80
70533;BMP180;58088;51.186;17.130;2023-04-25T12:34:48;99418.80;;;17.70
70533;BMP180;58088;51.186;17.130;2023-04-25T12:37:15;99415.60;;;17.60
70533;BMP180;58088;51.186;17.130;2023-04-25T12:39:41;99415.40;;;17.60
70533;BMP180;58088;51.186;17.130;2023-04-25T12:42:07;99415.60;;;17.60
70533;BMP180;58088;51.186;17.130;2023-04-25T12:44:38;99423.80;;;17.60
70533;BMP180;58088;51.186;17.130;2023-04-25T12:47:04;99424.80;;;17.50
70533;BMP180;58088;51.186;17.130;2023-04-25T12:49:31;99426.00;;;17.20
70533;BMP180;58088;51.186;17.130;2023-04-25T12:51:58;99425.20;;;17.12
70533;BMP180;58088;51.186;17.130;2023-04-25T12:54:24;99417.40;;;17.10
70533;BMP180;58088;51.186;17.130;2023-04-25T12:56:51;99420.00;;;17.10
70533;BMP180;58088;51.186;17.130;2023-04-25T12:59:18;99420.00;;;17.20
70533;BMP180;58088;51.186;17.130;2023-04-25T13:01:46;99419.60;;;17.30
70533;BMP180;58088;51.186;17.130;2023-04-25T13:04:12;99410.80;;;17.36
70533;BMP180;58088;51.186;17.130;2023-04-25T13:06:38;99415.20;;;17.30
70533;BMP180;58088;51.186;17.130;2023-04-25T13:09:04;99417.60;;;17.20
70533;BMP180;58088;51.186;17.130;2023-04-25T13:11:30;99412.00;;;17.20
70533;BMP180;58088;51.186;17.130;2023-04-25T13:13:57;99412.20;;;17.20
70533;BMP180;58088;51.186;17.130;2023-04-25T13:16:23;99414.40;;;17.20
70533;BMP180;58088;51.186;17.130;2023-04-25T13:18:49;99412.00;;;17.20
70533;BMP180;58088;51.186;17.130;2023-04-25T13:21:15;99408.40;;;17.30
70533;BMP180;58088;51.186;17.130;2023-04-25T13:23:41;99417.40;;;17.20
70533;BMP180;58088;51.186;17.130;2023-04-25T13:26:08;99409.80;;;17.28
70533;BMP180;58088;51.186;17.130;2023-04-25T13:28:35;99410.80;;;17.30
70533;BMP180;58088;51.186;17.130;2023-04-25T13:31:01;99412.20;;;17.10
70533;BMP180;58088;51.186;17.130;2023-04-25T13:33:27;99415.80;;;17.10
70533;BMP180;58088;51.186;17.130;2023-04-25T13:35:53;99415.20;;;17.10
70533;BMP180;58088;51.186;17.130;2023-04-25T13:38:21;99417.20;;;16.96
70533;BMP180;58088;51.186;17.130;2023-04-25T13:40:49;99415.40;;;16.90
70533;BMP180;58088;51.186;17.130;2023-04-25T13:43:15;99419.00;;;16.92
70533;BMP180;58088;51.186;17.130;2023-04-25T13:45:42;99421.40;;;17.00
70533;BMP180;58088;51.186;17.130;2023-04-25T13:48:08;99421.20;;;16.98
70533;BMP180;58088;51.186;17.130;2023-04-25T13:50:34;99420.40;;;16.90
70533;BMP180;58088;51.186;17.130;2023-04-25T13:53:01;99425.40;;;16.90
70533;BMP180;58088;51.186;17.130;2023-04-25T13:55:27;99432.00;;;16.90
70533;BMP180;58088;51.186;17.130;2023-04-25T13:57:53;99430.60;;;16.88
70533;BMP180;58088;51.186;17.130;2023-04-25T14:00:19;99424.60;;;16.80
70533;BMP180;58088;51.186;17.130;2023-04-25T14:02:46;99431.40;;;16.80
70533;BMP180;58088;51.186;17.130;2023-04-25T14:05:13;99428.60;;;16.90
70533;BMP180;58088;51.186;17.130;2023-04-25T14:07:39;99426.20;;;17.02
70533;BMP180;58088;51.186;17.130;2023-04-25T14:10:05;99424.60;;;17.10
70533;BMP180;58088;51.186;17.130;2023-04-25T14:12:32;99426.80;;;17.10
70533;BMP180;58088;51.186;17.130;2023-04-25T14:14:59;99423.20;;;17.10
70533;BMP180;58088;51.186;17.130;2023-04-25T14:17:25;99428.60;;;17.10
70533;BMP180;58088;51.186;17.130;2023-04-25T14:19:52;99432.00;;;17.10